sensor_id;sensor_type;location;lat;lon;timestamp;temperature;humidity
53880;DHT22;39791;53.184;5.486;2023-07-30T00:00:45;20.60;99.90
53880;DHT22;39791;53.184;5.486;2023-07-30T00:03:10;19.10;99.90
53880;DHT22;39791;53.184;5.486;2023-07-30T00:05:36;19.10;99.90
53880;DHT22;39791;53.184;5.486;2023-07-30T00:08:01;20.10;99.90
53880;DHT22;39791;53.184;5.486;2023-07-30T00:10:27;20.10;99.90
53880;DHT22;39791;53.184;5.486;2023-07-30T00:12:53;19.60;99.90
53880;DHT22;39791;53.184;5.486;2023-07-30T00:15:18;19.80;99.90
53880;DHT22;39791;53.184;5.486;2023-07-30T00:17:44;20.40;99.90
53880;DHT22;39791;53.184;5.486;2023-07-30T00:20:10;19.50;99.90
53880;DHT22;39791;53.184;5.486;2023-07-30T00:22:35;19.90;99.90
53880;DHT22;39791;53.184;5.486;2023-07-30T00:25:01;19.30;99.90
53880;DHT22;39791;53.184;5.486;2023-07-30T00:27:26;20.40;99.90
53880;DHT22;39791;53.184;5.486;2023-07-30T00:29:52;20.40;99.90
53880;DHT22;39791;53.184;5.486;2023-07-30T00:32:17;19.40;99.90
53880;DHT22;39791;53.184;5.486;2023-07-30T00:34:43;20.40;99.90
53880;DHT22;39791;53.184;5.486;2023-07-30T00:37:09;20.00;99.90
53880;DHT22;39791;53.184;5.486;2023-07-30T00:39:35;20.70;99.90
53880;DHT22;39791;53.184;5.486;2023-07-30T00:42:00;19.50;99.90
53880;DHT22;39791;53.184;5.486;2023-07-30T00:44:26;19.50;99.90
53880;DHT22;39791;53.184;5.486;2023-07-30T00:46:52;20.70;99.90
53880;DHT22;39791;53.184;5.486;2023-07-30T00:49:18;21.30;99.90
53880;DHT22;39791;53.184;5.486;2023-07-30T00:51:44;21.20;99.90
53880;DHT22;39791;53.184;5.486;2023-07-30T00:54:10;22.50;99.90
53880;DHT22;39791;53.184;5.486;2023-07-30T00:56:36;21.00;99.90
53880;DHT22;39791;53.184;5.486;2023-07-30T00:59:02;20.10;99.90
53880;DHT22;39791;53.184;5.486;2023-07-30T01:01:29;20.00;99.90
53880;DHT22;39791;53.184;5.486;2023-07-30T01:03:58;20.60;99.90
53880;DHT22;39791;53.184;5.486;2023-07-30T01:06:24;20.20;99.90
53880;DHT22;39791;53.184;5.486;2023-07-30T01:08:49;21.10;99.90
53880;DHT22;39791;53.184;5.486;2023-07-30T01:11:15;19.80;99.90
53880;DHT22;39791;53.184;5.486;2023-07-30T01:13:41;20.20;99.90
53880;DHT22;39791;53.184;5.486;2023-07-30T01:16:08;19.90;99.90
53880;DHT22;39791;53.184;5.486;2023-07-30T01:18:34;22.10;99.90
53880;DHT22;39791;53.184;5.486;2023-07-30T01:21:00;19.90;99.90
53880;DHT22;39791;53.184;5.486;2023-07-30T01:23:26;20.50;99.90
53880;DHT22;39791;53.184;5.486;2023-07-30T01:26:02;20.50;99.90
53880;DHT22;39791;53.184;5.486;2023-07-30T01:28:35;19.60;99.90
53880;DHT22;39791;53.184;5.486;2023-07-30T01:31:02;19.50;99.90
53880;DHT22;39791;53.184;5.486;2023-07-30T01:33:29;20.80;99.90
53880;DHT22;39791;53.184;5.486;2023-07-30T01:35:55;20.30;99.90
53880;DHT22;39791;53.184;5.486;2023-07-30T01:38:22;22.10;99.90
53880;DHT22;39791;53.184;5.486;2023-07-30T01:40:48;19.80;99.90
53880;DHT22;39791;53.184;5.486;2023-07-30T01:43:14;19.80;99.90
53880;DHT22;39791;53.184;5.486;2023-07-30T01:45:40;20.60;99.90
53880;DHT22;39791;53.184;5.486;2023-07-30T01:48:06;20.40;99.90
53880;DHT22;39791;53.184;5.486;2023-07-30T01:50:32;19.50;99.90
53880;DHT22;39791;53.184;5.486;2023-07-30T01:52:57;19.30;99.90
53880;DHT22;39791;53.184;5.486;2023-07-30T01:55:23;19.50;99.90
53880;DHT22;39791;53.184;5.486;2023-07-30T01:57:48;19.40;99.90
53880;DHT22;39791;53.184;5.486;2023-07-30T02:00:14;20.10;99.90
53880;DHT22;39791;53.184;5.486;2023-07-30T02:02:39;19.70;99.90
53880;DHT22;39791;53.184;5.486;2023-07-30T02:05:05;20.20;99.90
53880;DHT22;39791;53.184;5.486;2023-07-30T02:07:31;19.60;99.90
53880;DHT22;39791;53.184;5.486;2023-07-30T02:09:56;19.70;99.90
53880;DHT22;39791;53.184;5.486;2023-07-30T02:12:22;19.50;99.90
53880;DHT22;39791;53.184;5.486;2023-07-30T02:14:47;20.50;99.90
53880;DHT22;39791;53.184;5.486;2023-07-30T02:17:13;20.20;99.90
53880;DHT22;39791;53.184;5.486;2023-07-30T02:19:39;20.20;99.90
53880;DHT22;39791;53.184;5.486;2023-07-30T02:22:04;20.00;99.90
53880;DHT22;39791;53.184;5.486;2023-07-30T02:24:30;19.80;99.90
53880;DHT22;39791;53.184;5.486;2023-07-30T02:26:55;21.10;99.90
53880;DHT22;39791;53.184;5.486;2023-07-30T02:29:21;22.20;99.90
53880;DHT22;39791;53.184;5.486;2023-07-30T02:31:47;19.80;99.90
53880;DHT22;39791;53.184;5.486;2023-07-30T02:34:12;20.10;99.90
53880;DHT22;39791;53.184;5.486;2023-07-30T02:36:38;20.20;99.90
53880;DHT22;39791;53.184;5.486;2023-07-30T02:39:03;21.20;99.90
53880;DHT22;39791;53.184;5.486;2023-07-30T02:41:29;20.80;99.90
53880;DHT22;39791;53.184;5.486;2023-07-30T02:43:54;20.10;99.90
53880;DHT22;39791;53.184;5.486;2023-07-30T02:46:20;20.90;99.90
53880;DHT22;39791;53.184;5.486;2023-07-30T02:48:45;20.10;99.90
53880;DHT22;39791;53.184;5.486;2023-07-30T02:51:11;19.90;99.90
53880;DHT22;39791;53.184;5.486;2023-07-30T02:53:37;20.10;4.40
53880;DHT22;39791;53.184;5.486;2023-07-30T02:56:02;21.50;99.90
53880;DHT22;39791;53.184;5.486;2023-07-30T02:58:28;20.10;99.90
53880;DHT22;39791;53.184;5.486;2023-07-30T03:00:53;20.20;1.00
53880;DHT22;39791;53.184;5.486;2023-07-30T03:03:19;20.00;99.90
53880;DHT22;39791;53.184;5.486;2023-07-30T03:05:44;20.20;99.90
53880;DHT22;39791;53.184;5.486;2023-07-30T03:08:10;20.00;38.70
53880;DHT22;39791;53.184;5.486;2023-07-30T03:10:39;20.90;99.90
53880;DHT22;39791;53.184;5.486;2023-07-30T03:13:04;20.80;99.90
53880;DHT22;39791;53.184;5.486;2023-07-30T03:15:30;21.40;1.00
53880;DHT22;39791;53.184;5.486;2023-07-30T03:17:55;21.50;99.90
53880;DHT22;39791;53.184;5.486;2023-07-30T03:20:21;19.70;69.00
53880;DHT22;39791;53.184;5.486;2023-07-30T03:22:46;21.60;99.90
53880;DHT22;39791;53.184;5.486;2023-07-30T03:25:12;21.70;99.90
53880;DHT22;39791;53.184;5.486;2023-07-30T03:27:37;19.70;1.00
53880;DHT22;39791;53.184;5.486;2023-07-30T03:30:03;19.90;99.90
53880;DHT22;39791;53.184;5.486;2023-07-30T03:32:30;19.70;99.90
53880;DHT22;39791;53.184;5.486;2023-07-30T03:34:55;21.60;99.90
53880;DHT22;39791;53.184;5.486;2023-07-30T03:37:21;19.90;99.90
53880;DHT22;39791;53.184;5.486;2023-07-30T03:39:46;19.60;99.90
53880;DHT22;39791;53.184;5.486;2023-07-30T03:42:12;19.90;96.30
53880;DHT22;39791;53.184;5.486;2023-07-30T03:44:37;20.80;39.80
53880;DHT22;39791;53.184;5.486;2023-07-30T03:47:03;19.70;18.30
53880;DHT22;39791;53.184;5.486;2023-07-30T03:49:28;19.90;1.00
53880;DHT22;39791;53.184;5.486;2023-07-30T03:51:54;19.70;1.00
53880;DHT22;39791;53.184;5.486;2023-07-30T03:54:20;19.90;1.00
53880;DHT22;39791;53.184;5.486;2023-07-30T03:56:45;19.70;1.00
53880;DHT22;39791;53.184;5.486;2023-07-30T03:59:11;19.90;1.00
53880;DHT22;39791;53.184;5.486;2023-07-30T04:01:36;21.30;99.90
53880;DHT22;39791;53.184;5.486;2023-07-30T04:04:02;21.50;99.90
53880;DHT22;39791;53.184;5.486;2023-07-30T04:06:27;19.90;99.90
53880;DHT22;39791;53.184;5.486;2023-07-30T04:08:53;20.30;99.90
53880;DHT22;39791;53.184;5.486;2023-07-30T04:11:19;20.00;73.10
53880;DHT22;39791;53.184;5.486;2023-07-30T04:13:44;20.20;1.00
53880;DHT22;39791;53.184;5.486;2023-07-30T04:16:10;19.90;1.00
53880;DHT22;39791;53.184;5.486;2023-07-30T04:18:35;20.90;1.00
53880;DHT22;39791;53.184;5.486;2023-07-30T04:21:01;21.00;1.00
53880;DHT22;39791;53.184;5.486;2023-07-30T04:23:26;21.80;1.00
53880;DHT22;39791;53.184;5.486;2023-07-30T04:25:52;21.80;1.00
53880;DHT22;39791;53.184;5.486;2023-07-30T04:28:17;19.90;1.00
53880;DHT22;39791;53.184;5.486;2023-07-30T04:30:43;20.30;99.90
53880;DHT22;39791;53.184;5.486;2023-07-30T04:33:09;19.90;99.90
53880;DHT22;39791;53.184;5.486;2023-07-30T04:35:35;19.80;99.90
53880;DHT22;39791;53.184;5.486;2023-07-30T04:38:01;20.00;99.90
53880;DHT22;39791;53.184;5.486;2023-07-30T04:40:26;20.10;99.90
53880;DHT22;39791;53.184;5.486;2023-07-30T04:42:52;19.80;99.90
53880;DHT22;39791;53.184;5.486;2023-07-30T04:45:17;22.00;99.90
53880;DHT22;39791;53.184;5.486;2023-07-30T04:47:43;21.60;99.90
53880;DHT22;39791;53.184;5.486;2023-07-30T04:50:09;19.90;99.90
53880;DHT22;39791;53.184;5.486;2023-07-30T04:52:34;19.90;99.90
53880;DHT22;39791;53.184;5.486;2023-07-30T04:55:00;19.90;99.90
53880;DHT22;39791;53.184;5.486;2023-07-30T04:57:25;20.10;99.90
53880;DHT22;39791;53.184;5.486;2023-07-30T04:59:52;19.80;99.90
53880;DHT22;39791;53.184;5.486;2023-07-30T05:02:17;19.90;99.90
53880;DHT22;39791;53.184;5.486;2023-07-30T05:04:43;21.30;99.90
53880;DHT22;39791;53.184;5.486;2023-07-30T05:07:08;21.40;99.90
53880;DHT22;39791;53.184;5.486;2023-07-30T05:09:34;20.10;99.90
53880;DHT22;39791;53.184;5.486;2023-07-30T05:11:59;19.80;99.90
53880;DHT22;39791;53.184;5.486;2023-07-30T05:14:25;20.50;99.90
53880;DHT22;39791;53.184;5.486;2023-07-30T05:16:50;21.50;99.90
53880;DHT22;39791;53.184;5.486;2023-07-30T05:19:16;20.60;99.90
53880;DHT22;39791;53.184;5.486;2023-07-30T05:21:42;19.90;99.90
53880;DHT22;39791;53.184;5.486;2023-07-30T05:24:07;20.40;99.90
53880;DHT22;39791;53.184;5.486;2023-07-30T05:26:33;19.80;99.90
53880;DHT22;39791;53.184;5.486;2023-07-30T05:28:59;21.50;99.90
53880;DHT22;39791;53.184;5.486;2023-07-30T05:31:24;19.70;99.90
53880;DHT22;39791;53.184;5.486;2023-07-30T05:33:50;19.80;99.90
53880;DHT22;39791;53.184;5.486;2023-07-30T05:36:15;20.60;99.90
53880;DHT22;39791;53.184;5.486;2023-07-30T05:38:41;20.50;99.90
53880;DHT22;39791;53.184;5.486;2023-07-30T05:41:06;19.90;99.90
53880;DHT22;39791;53.184;5.486;2023-07-30T05:43:32;19.80;99.90
53880;DHT22;39791;53.184;5.486;2023-07-30T05:45:57;19.60;99.90
53880;DHT22;39791;53.184;5.486;2023-07-30T05:48:23;19.70;99.90
53880;DHT22;39791;53.184;5.486;2023-07-30T05:50:49;19.80;99.90
53880;DHT22;39791;53.184;5.486;2023-07-30T05:53:15;19.90;99.90
53880;DHT22;39791;53.184;5.486;2023-07-30T05:55:40;21.20;99.90
53880;DHT22;39791;53.184;5.486;2023-07-30T05:58:06;20.00;99.90
53880;DHT22;39791;53.184;5.486;2023-07-30T06:00:31;20.10;99.90
53880;DHT22;39791;53.184;5.486;2023-07-30T06:02:57;20.30;47.10
53880;DHT22;39791;53.184;5.486;2023-07-30T06:05:22;20.90;1.00
53880;DHT22;39791;53.184;5.486;2023-07-30T06:07:48;20.70;1.00
53880;DHT22;39791;53.184;5.486;2023-07-30T06:10:13;20.20;1.00
53880;DHT22;39791;53.184;5.486;2023-07-30T06:12:39;20.20;1.00
53880;DHT22;39791;53.184;5.486;2023-07-30T06:15:06;20.60;1.00
53880;DHT22;39791;53.184;5.486;2023-07-30T06:17:32;20.20;1.00
53880;DHT22;39791;53.184;5.486;2023-07-30T06:19:57;20.10;99.90
53880;DHT22;39791;53.184;5.486;2023-07-30T06:22:23;21.80;99.90
53880;DHT22;39791;53.184;5.486;2023-07-30T06:24:48;20.00;99.90
53880;DHT22;39791;53.184;5.486;2023-07-30T06:27:14;19.80;99.90
53880;DHT22;39791;53.184;5.486;2023-07-30T06:29:39;20.20;99.90
53880;DHT22;39791;53.184;5.486;2023-07-30T06:32:05;20.10;99.90
53880;DHT22;39791;53.184;5.486;2023-07-30T06:34:31;20.10;99.90
53880;DHT22;39791;53.184;5.486;2023-07-30T06:36:57;20.10;99.90
53880;DHT22;39791;53.184;5.486;2023-07-30T06:39:22;21.80;99.90
53880;DHT22;39791;53.184;5.486;2023-07-30T06:41:48;20.90;99.90
53880;DHT22;39791;53.184;5.486;2023-07-30T06:44:13;20.40;99.90
53880;DHT22;39791;53.184;5.486;2023-07-30T06:46:39;21.00;99.90
53880;DHT22;39791;53.184;5.486;2023-07-30T06:49:04;20.30;99.90
53880;DHT22;39791;53.184;5.486;2023-07-30T06:51:30;20.50;99.90
53880;DHT22;39791;53.184;5.486;2023-07-30T06:53:56;20.50;99.90
53880;DHT22;39791;53.184;5.486;2023-07-30T06:56:21;20.70;99.90
53880;DHT22;39791;53.184;5.486;2023-07-30T06:58:47;20.60;99.90
53880;DHT22;39791;53.184;5.486;2023-07-30T07:01:13;20.40;99.90
53880;DHT22;39791;53.184;5.486;2023-07-30T07:03:38;20.40;99.90
53880;DHT22;39791;53.184;5.486;2023-07-30T07:06:04;20.30;99.90
53880;DHT22;39791;53.184;5.486;2023-07-30T07:08:30;20.30;91.40
53880;DHT22;39791;53.184;5.486;2023-07-30T07:10:56;22.30;63.50
53880;DHT22;39791;53.184;5.486;2023-07-30T07:13:21;20.40;48.70
53880;DHT22;39791;53.184;5.486;2023-07-30T07:15:47;20.60;94.20
53880;DHT22;39791;53.184;5.486;2023-07-30T07:18:13;20.80;98.40
53880;DHT22;39791;53.184;5.486;2023-07-30T07:20:38;20.90;43.50
53880;DHT22;39791;53.184;5.486;2023-07-30T07:23:04;20.90;2.40
53880;DHT22;39791;53.184;5.486;2023-07-30T07:25:30;21.10;1.00
53880;DHT22;39791;53.184;5.486;2023-07-30T07:27:56;20.90;1.00
53880;DHT22;39791;53.184;5.486;2023-07-30T07:30:21;22.10;1.00
53880;DHT22;39791;53.184;5.486;2023-07-30T07:32:47;21.00;1.00
53880;DHT22;39791;53.184;5.486;2023-07-30T07:35:16;20.70;1.00
53880;DHT22;39791;53.184;5.486;2023-07-30T07:37:42;20.70;1.00
53880;DHT22;39791;53.184;5.486;2023-07-30T07:40:08;20.60;1.00
53880;DHT22;39791;53.184;5.486;2023-07-30T07:42:35;20.60;1.00
53880;DHT22;39791;53.184;5.486;2023-07-30T07:45:01;20.60;1.00
53880;DHT22;39791;53.184;5.486;2023-07-30T07:47:26;20.50;1.00
53880;DHT22;39791;53.184;5.486;2023-07-30T07:49:52;20.40;1.00
53880;DHT22;39791;53.184;5.486;2023-07-30T07:52:18;20.30;1.00
53880;DHT22;39791;53.184;5.486;2023-07-30T07:54:44;20.40;1.00
53880;DHT22;39791;53.184;5.486;2023-07-30T07:57:10;20.30;1.00
53880;DHT22;39791;53.184;5.486;2023-07-30T07:59:36;20.20;1.00
53880;DHT22;39791;53.184;5.486;2023-07-30T08:02:02;20.20;1.00
53880;DHT22;39791;53.184;5.486;2023-07-30T08:04:27;20.30;1.00
53880;DHT22;39791;53.184;5.486;2023-07-30T08:06:53;20.30;1.00
53880;DHT22;39791;53.184;5.486;2023-07-30T08:09:19;20.30;25.30
53880;DHT22;39791;53.184;5.486;2023-07-30T08:11:44;20.40;54.60
53880;DHT22;39791;53.184;5.486;2023-07-30T08:14:10;20.40;61.20
53880;DHT22;39791;53.184;5.486;2023-07-30T08:16:35;21.20;85.80
53880;DHT22;39791;53.184;5.486;2023-07-30T08:19:01;21.80;59.20
53880;DHT22;39791;53.184;5.486;2023-07-30T08:21:26;20.50;30.40
53880;DHT22;39791;53.184;5.486;2023-07-30T08:23:52;20.60;16.10
53880;DHT22;39791;53.184;5.486;2023-07-30T08:26:17;20.70;1.00
53880;DHT22;39791;53.184;5.486;2023-07-30T08:28:44;20.90;1.00
53880;DHT22;39791;53.184;5.486;2023-07-30T08:31:10;21.90;1.00
53880;DHT22;39791;53.184;5.486;2023-07-30T08:33:35;21.20;1.00
53880;DHT22;39791;53.184;5.486;2023-07-30T08:36:01;21.00;1.00
53880;DHT22;39791;53.184;5.486;2023-07-30T08:38:28;21.10;1.00
53880;DHT22;39791;53.184;5.486;2023-07-30T08:40:55;21.20;1.00
53880;DHT22;39791;53.184;5.486;2023-07-30T08:43:20;21.20;1.00
53880;DHT22;39791;53.184;5.486;2023-07-30T08:45:46;21.20;1.00
53880;DHT22;39791;53.184;5.486;2023-07-30T08:48:12;21.10;1.00
53880;DHT22;39791;53.184;5.486;2023-07-30T08:50:39;21.70;1.00
53880;DHT22;39791;53.184;5.486;2023-07-30T08:53:05;21.20;1.00
53880;DHT22;39791;53.184;5.486;2023-07-30T08:55:33;21.40;1.00
53880;DHT22;39791;53.184;5.486;2023-07-30T08:58:01;22.10;1.00
53880;DHT22;39791;53.184;5.486;2023-07-30T09:00:31;21.90;1.00
53880;DHT22;39791;53.184;5.486;2023-07-30T09:02:59;22.00;1.00
53880;DHT22;39791;53.184;5.486;2023-07-30T09:05:26;22.70;1.00
53880;DHT22;39791;53.184;5.486;2023-07-30T09:07:57;22.50;1.00
53880;DHT22;39791;53.184;5.486;2023-07-30T09:10:24;22.90;1.00
53880;DHT22;39791;53.184;5.486;2023-07-30T09:12:55;22.80;1.00
53880;DHT22;39791;53.184;5.486;2023-07-30T09:15:32;23.00;1.00
53880;DHT22;39791;53.184;5.486;2023-07-30T09:17:59;23.00;99.90
53880;DHT22;39791;53.184;5.486;2023-07-30T09:20:25;22.70;99.90
53880;DHT22;39791;53.184;5.486;2023-07-30T09:22:50;22.30;99.90
53880;DHT22;39791;53.184;5.486;2023-07-30T09:25:18;22.00;99.90
53880;DHT22;39791;53.184;5.486;2023-07-30T09:27:49;21.90;99.90
53880;DHT22;39791;53.184;5.486;2023-07-30T09:30:15;21.50;99.90
53880;DHT22;39791;53.184;5.486;2023-07-30T09:32:54;21.90;99.90
53880;DHT22;39791;53.184;5.486;2023-07-30T09:35:20;22.20;99.90
53880;DHT22;39791;53.184;5.486;2023-07-30T09:37:46;22.70;99.90
53880;DHT22;39791;53.184;5.486;2023-07-30T09:40:16;23.00;99.90
53880;DHT22;39791;53.184;5.486;2023-07-30T09:42:45;23.30;99.90
53880;DHT22;39791;53.184;5.486;2023-07-30T09:45:24;23.20;99.90
53880;DHT22;39791;53.184;5.486;2023-07-30T09:47:52;23.20;99.90
53880;DHT22;39791;53.184;5.486;2023-07-30T09:50:18;23.30;99.90
53880;DHT22;39791;53.184;5.486;2023-07-30T09:52:44;23.50;99.90
53880;DHT22;39791;53.184;5.486;2023-07-30T09:55:10;23.30;99.90
53880;DHT22;39791;53.184;5.486;2023-07-30T09:57:37;23.00;99.90
53880;DHT22;39791;53.184;5.486;2023-07-30T10:00:03;22.80;99.90
53880;DHT22;39791;53.184;5.486;2023-07-30T10:02:30;22.70;99.90
53880;DHT22;39791;53.184;5.486;2023-07-30T10:04:59;22.80;99.90
53880;DHT22;39791;53.184;5.486;2023-07-30T10:07:26;23.20;99.90
53880;DHT22;39791;53.184;5.486;2023-07-30T10:09:57;23.10;99.90
53880;DHT22;39791;53.184;5.486;2023-07-30T10:12:28;23.10;99.90
53880;DHT22;39791;53.184;5.486;2023-07-30T10:14:56;23.70;99.90
53880;DHT22;39791;53.184;5.486;2023-07-30T10:17:22;23.80;99.90
53880;DHT22;39791;53.184;5.486;2023-07-30T10:19:49;23.40;99.90
53880;DHT22;39791;53.184;5.486;2023-07-30T10:25:04;22.70;99.90
53880;DHT22;39791;53.184;5.486;2023-07-30T10:27:40;22.80;99.90
53880;DHT22;39791;53.184;5.486;2023-07-30T10:30:12;22.80;99.90
53880;DHT22;39791;53.184;5.486;2023-07-30T10:32:57;23.00;99.90
53880;DHT22;39791;53.184;5.486;2023-07-30T10:40:40;22.60;99.90
53880;DHT22;39791;53.184;5.486;2023-07-30T10:43:16;22.30;99.90
53880;DHT22;39791;53.184;5.486;2023-07-30T10:45:49;22.20;99.90
53880;DHT22;39791;53.184;5.486;2023-07-30T10:48:16;22.40;99.90
53880;DHT22;39791;53.184;5.486;2023-07-30T10:50:42;22.30;99.90
53880;DHT22;39791;53.184;5.486;2023-07-30T10:53:08;22.10;99.90
53880;DHT22;39791;53.184;5.486;2023-07-30T10:55:34;22.30;99.90
53880;DHT22;39791;53.184;5.486;2023-07-30T10:58:00;22.50;99.90
53880;DHT22;39791;53.184;5.486;2023-07-30T11:00:26;22.50;99.90
53880;DHT22;39791;53.184;5.486;2023-07-30T11:02:55;22.50;99.90
53880;DHT22;39791;53.184;5.486;2023-07-30T11:05:21;22.10;99.90
53880;DHT22;39791;53.184;5.486;2023-07-30T11:07:50;22.70;99.90
53880;DHT22;39791;53.184;5.486;2023-07-30T11:10:17;21.90;99.90
53880;DHT22;39791;53.184;5.486;2023-07-30T11:12:42;22.00;99.90
53880;DHT22;39791;53.184;5.486;2023-07-30T11:15:08;22.40;99.90
53880;DHT22;39791;53.184;5.486;2023-07-30T11:17:35;22.10;99.90
53880;DHT22;39791;53.184;5.486;2023-07-30T11:20:00;22.30;99.90
53880;DHT22;39791;53.184;5.486;2023-07-30T11:22:31;22.20;99.90
53880;DHT22;39791;53.184;5.486;2023-07-30T11:24:57;22.10;99.90
53880;DHT22;39791;53.184;5.486;2023-07-30T11:27:23;22.60;99.90
53880;DHT22;39791;53.184;5.486;2023-07-30T11:29:56;22.80;99.90
53880;DHT22;39791;53.184;5.486;2023-07-30T11:32:22;22.90;99.90
53880;DHT22;39791;53.184;5.486;2023-07-30T11:34:54;22.60;99.90
53880;DHT22;39791;53.184;5.486;2023-07-30T11:37:21;22.50;99.90
53880;DHT22;39791;53.184;5.486;2023-07-30T11:39:47;22.50;99.90
53880;DHT22;39791;53.184;5.486;2023-07-30T11:42:13;22.30;99.90
53880;DHT22;39791;53.184;5.486;2023-07-30T11:44:39;22.20;99.90
53880;DHT22;39791;53.184;5.486;2023-07-30T11:47:06;22.10;99.90
53880;DHT22;39791;53.184;5.486;2023-07-30T11:49:31;22.20;99.90
53880;DHT22;39791;53.184;5.486;2023-07-30T11:52:09;22.20;99.90
53880;DHT22;39791;53.184;5.486;2023-07-30T11:54:36;22.40;99.90
53880;DHT22;39791;53.184;5.486;2023-07-30T11:57:01;22.50;99.90
53880;DHT22;39791;53.184;5.486;2023-07-30T11:59:27;22.50;99.90
53880;DHT22;39791;53.184;5.486;2023-07-30T12:01:53;23.30;99.90
53880;DHT22;39791;53.184;5.486;2023-07-30T12:04:19;22.60;99.90
53880;DHT22;39791;53.184;5.486;2023-07-30T12:09:20;24.00;99.90
53880;DHT22;39791;53.184;5.486;2023-07-30T12:14:15;22.50;99.90
53880;DHT22;39791;53.184;5.486;2023-07-30T12:16:40;22.20;99.90
53880;DHT22;39791;53.184;5.486;2023-07-30T12:19:06;22.20;99.90
53880;DHT22;39791;53.184;5.486;2023-07-30T12:21:32;22.40;99.90
53880;DHT22;39791;53.184;5.486;2023-07-30T12:23:57;22.50;99.90
53880;DHT22;39791;53.184;5.486;2023-07-30T12:26:23;22.60;99.90
53880;DHT22;39791;53.184;5.486;2023-07-30T12:28:48;22.60;99.90
53880;DHT22;39791;53.184;5.486;2023-07-30T12:31:14;22.60;99.90
53880;DHT22;39791;53.184;5.486;2023-07-30T12:33:40;22.60;99.90
53880;DHT22;39791;53.184;5.486;2023-07-30T12:36:05;23.20;99.90
53880;DHT22;39791;53.184;5.486;2023-07-30T12:38:31;22.90;99.90
53880;DHT22;39791;53.184;5.486;2023-07-30T12:40:56;22.40;99.90
53880;DHT22;39791;53.184;5.486;2023-07-30T12:43:22;22.10;99.90
53880;DHT22;39791;53.184;5.486;2023-07-30T12:45:48;23.30;99.90
53880;DHT22;39791;53.184;5.486;2023-07-30T12:48:14;22.10;99.90
53880;DHT22;39791;53.184;5.486;2023-07-30T12:50:39;21.90;99.90
53880;DHT22;39791;53.184;5.486;2023-07-30T12:53:05;21.90;99.90
53880;DHT22;39791;53.184;5.486;2023-07-30T12:55:30;21.70;99.90
53880;DHT22;39791;53.184;5.486;2023-07-30T12:57:56;21.90;99.90
53880;DHT22;39791;53.184;5.486;2023-07-30T13:00:21;22.50;99.90
53880;DHT22;39791;53.184;5.486;2023-07-30T13:02:47;21.80;99.90
53880;DHT22;39791;53.184;5.486;2023-07-30T13:05:13;22.00;99.90
53880;DHT22;39791;53.184;5.486;2023-07-30T13:07:40;22.40;99.90
53880;DHT22;39791;53.184;5.486;2023-07-30T13:10:07;22.00;99.90
53880;DHT22;39791;53.184;5.486;2023-07-30T13:12:34;22.30;99.90
53880;DHT22;39791;53.184;5.486;2023-07-30T13:15:00;22.60;99.90
53880;DHT22;39791;53.184;5.486;2023-07-30T13:17:25;22.40;99.90
53880;DHT22;39791;53.184;5.486;2023-07-30T13:19:51;22.40;99.90
53880;DHT22;39791;53.184;5.486;2023-07-30T13:22:17;22.50;99.90
53880;DHT22;39791;53.184;5.486;2023-07-30T13:24:42;23.30;99.90
53880;DHT22;39791;53.184;5.486;2023-07-30T13:27:08;23.90;99.90
53880;DHT22;39791;53.184;5.486;2023-07-30T13:29:34;24.60;99.90
53880;DHT22;39791;53.184;5.486;2023-07-30T13:31:59;22.90;99.90
53880;DHT22;39791;53.184;5.486;2023-07-30T13:37:00;22.40;99.90
53880;DHT22;39791;53.184;5.486;2023-07-30T13:39:27;22.30;99.90
53880;DHT22;39791;53.184;5.486;2023-07-30T13:41:52;22.20;99.90
53880;DHT22;39791;53.184;5.486;2023-07-30T13:44:18;22.00;99.90
53880;DHT22;39791;53.184;5.486;2023-07-30T13:46:43;21.90;99.90
53880;DHT22;39791;53.184;5.486;2023-07-30T13:49:09;21.80;99.90
53880;DHT22;39791;53.184;5.486;2023-07-30T13:51:34;21.70;99.90
53880;DHT22;39791;53.184;5.486;2023-07-30T13:54:01;21.70;99.90
53880;DHT22;39791;53.184;5.486;2023-07-30T13:56:30;21.50;99.90
53880;DHT22;39791;53.184;5.486;2023-07-30T13:58:56;21.30;1.00
53880;DHT22;39791;53.184;5.486;2023-07-30T14:01:22;21.50;1.00
53880;DHT22;39791;53.184;5.486;2023-07-30T14:03:47;21.40;99.90
53880;DHT22;39791;53.184;5.486;2023-07-30T14:06:13;21.40;99.90
53880;DHT22;39791;53.184;5.486;2023-07-30T14:08:39;21.50;99.90
53880;DHT22;39791;53.184;5.486;2023-07-30T14:11:04;21.50;99.90
53880;DHT22;39791;53.184;5.486;2023-07-30T14:13:30;21.50;99.90
53880;DHT22;39791;53.184;5.486;2023-07-30T14:15:55;21.50;99.90
53880;DHT22;39791;53.184;5.486;2023-07-30T14:18:22;21.40;99.90
53880;DHT22;39791;53.184;5.486;2023-07-30T14:20:47;21.20;99.90
53880;DHT22;39791;53.184;5.486;2023-07-30T14:23:13;21.10;99.90
53880;DHT22;39791;53.184;5.486;2023-07-30T14:25:39;21.00;1.00
53880;DHT22;39791;53.184;5.486;2023-07-30T14:28:05;20.70;15.60
53880;DHT22;39791;53.184;5.486;2023-07-30T14:30:30;20.20;38.50
53880;DHT22;39791;53.184;5.486;2023-07-30T14:32:56;20.10;99.90
53880;DHT22;39791;53.184;5.486;2023-07-30T14:35:22;20.00;99.90
53880;DHT22;39791;53.184;5.486;2023-07-30T14:37:48;19.30;99.90
53880;DHT22;39791;53.184;5.486;2023-07-30T14:40:15;19.10;1.00
53880;DHT22;39791;53.184;5.486;2023-07-30T14:42:40;19.00;99.90
53880;DHT22;39791;53.184;5.486;2023-07-30T14:45:07;18.90;99.90
53880;DHT22;39791;53.184;5.486;2023-07-30T14:47:32;19.00;1.00
53880;DHT22;39791;53.184;5.486;2023-07-30T14:49:58;19.10;16.40
53880;DHT22;39791;53.184;5.486;2023-07-30T14:52:24;18.90;99.90
53880;DHT22;39791;53.184;5.486;2023-07-30T14:54:50;19.40;99.90
53880;DHT22;39791;53.184;5.486;2023-07-30T14:57:16;19.40;1.00
53880;DHT22;39791;53.184;5.486;2023-07-30T14:59:42;19.70;1.00
53880;DHT22;39791;53.184;5.486;2023-07-30T15:02:07;20.10;1.00
53880;DHT22;39791;53.184;5.486;2023-07-30T15:04:33;20.10;99.90
53880;DHT22;39791;53.184;5.486;2023-07-30T15:06:58;20.20;99.90
53880;DHT22;39791;53.184;5.486;2023-07-30T15:09:24;20.10;1.00
53880;DHT22;39791;53.184;5.486;2023-07-30T15:11:50;20.10;99.90
53880;DHT22;39791;53.184;5.486;2023-07-30T15:14:15;20.10;99.90
53880;DHT22;39791;53.184;5.486;2023-07-30T15:16:41;20.20;99.90
53880;DHT22;39791;53.184;5.486;2023-07-30T15:19:06;20.10;99.90
53880;DHT22;39791;53.184;5.486;2023-07-30T15:21:32;20.10;77.60
53880;DHT22;39791;53.184;5.486;2023-07-30T15:23:57;20.30;99.90
53880;DHT22;39791;53.184;5.486;2023-07-30T15:26:26;20.20;99.90
53880;DHT22;39791;53.184;5.486;2023-07-30T15:28:52;20.00;99.90
53880;DHT22;39791;53.184;5.486;2023-07-30T15:31:18;20.30;99.90
53880;DHT22;39791;53.184;5.486;2023-07-30T15:33:44;20.40;99.90
53880;DHT22;39791;53.184;5.486;2023-07-30T15:36:09;20.50;1.00
53880;DHT22;39791;53.184;5.486;2023-07-30T15:38:35;20.80;1.00
53880;DHT22;39791;53.184;5.486;2023-07-30T15:41:00;20.90;99.90
53880;DHT22;39791;53.184;5.486;2023-07-30T15:43:26;20.90;72.60